| time (UTC) | temp F | wind direction | speed MPH | gust MPH | rain 1hr in | rain 24hr in | rain mn in | humidity % | barometer mb |
| 20260510033611 | 58 | 212 | 0.0 | 0.0 | 0.00 | 0.00 | 0.00 | 84 | 1009.6 |
| 20260510033109 | 58 | 212 | 0.0 | 0.0 | 0.00 | 0.00 | 0.00 | 83 | 1009.7 |
| 20260510032605 | 58 | 212 | 0.0 | 0.0 | 0.00 | 0.00 | 0.00 | 83 | 1009.6 |
| 20260510032100 | 59 | 212 | 0.0 | 0.0 | 0.00 | 0.00 | 0.00 | 82 | 1009.6 |
| 20260510031556 | 59 | 212 | 0.0 | 0.0 | 0.00 | 0.00 | 0.00 | 82 | 1009.5 |
| 20260510031052 | 59 | 212 | 0.0 | 0.0 | 0.00 | 0.00 | 0.00 | 81 | 1009.5 |
| 20260510030547 | 59 | 212 | 0.0 | 0.0 | 0.00 | 0.00 | 0.00 | 81 | 1009.6 |
| 20260510030045 | 59 | 212 | 0.0 | 0.0 | 0.00 | 0.00 | 0.00 | 80 | 1009.5 |
| 20260510025542 | 60 | 212 | 0.0 | 0.0 | 0.00 | 0.00 | 0.00 | 80 | 1009.5 |
| 20260510025040 | 60 | 212 | 0.0 | 0.0 | 0.00 | 0.00 | 0.00 | 80 | 1009.5 |
| 20260510024536 | 60 | 212 | 0.0 | 0.0 | 0.00 | 0.00 | 0.00 | 79 | 1009.4 |
| 20260510024032 | 60 | 212 | 0.0 | 0.0 | 0.00 | 0.00 | 0.00 | 79 | 1009.6 |
| 20260510023528 | 60 | 212 | 0.0 | 0.0 | 0.00 | 0.00 | 0.00 | 78 | 1009.3 |
| 20260510023026 | 61 | 212 | 0.0 | 0.0 | 0.00 | 0.00 | 0.00 | 77 | 1009.3 |
| 20260510022525 | 61 | 212 | 0.0 | 0.0 | 0.00 | 0.00 | 0.00 | 76 | 1009.5 |
| 20260510022020 | 61 | 212 | 0.0 | 0.0 | 0.00 | 0.00 | 0.00 | 76 | 1009.5 |
| 20260510021517 | 61 | 212 | 0.0 | 0.0 | 0.00 | 0.00 | 0.00 | 76 | 1009.5 |
| 20260510021015 | 61 | 212 | 0.0 | 0.0 | 0.00 | 0.00 | 0.00 | 75 | 1009.3 |
| 20260510020514 | 62 | 212 | 0.0 | 0.0 | 0.00 | 0.00 | 0.00 | 74 | 1009.2 |
| 20260510020010 | 62 | 212 | 0.0 | 0.0 | 0.00 | 0.00 | 0.00 | 74 | 1009.3 |
| 20260510015506 | 62 | 212 | 0.0 | 0.0 | 0.00 | 0.00 | 0.00 | 74 | 1009.1 |
| 20260510015001 | 62 | 212 | 0.0 | 0.0 | 0.00 | 0.00 | 0.00 | 74 | 1009.1 |
| 20260510014459 | 61 | 212 | 0.0 | 0.0 | 0.00 | 0.00 | 0.00 | 74 | 1009.3 |
| 20260510013955 | 61 | 212 | 0.0 | 0.0 | 0.00 | 0.00 | 0.00 | 74 | 1008.9 |
| 20260510013450 | 61 | 212 | 0.0 | 0.0 | 0.00 | 0.00 | 0.00 | 74 | 1008.7 |
| 20260510012946 | 61 | 212 | 0.0 | 0.0 | 0.00 | 0.00 | 0.00 | 73 | 1008.6 |
| 20260510012441 | 62 | 212 | 0.0 | 0.0 | 0.00 | 0.00 | 0.00 | 72 | 1008.8 |
| 20260510011936 | 62 | 212 | 0.0 | 0.0 | 0.00 | 0.00 | 0.00 | 72 | 1008.7 |
| 20260510011431 | 62 | 212 | 0.0 | 0.0 | 0.00 | 0.00 | 0.00 | 71 | 1008.7 |
| 20260510010927 | 62 | 212 | 0.0 | 0.0 | 0.00 | 0.00 | 0.00 | 70 | 1008.5 |
| 20260510010425 | 63 | 212 | 0.0 | 0.0 | 0.00 | 0.00 | 0.00 | 69 | 1008.3 |
| 20260510005922 | 63 | 212 | 0.0 | 0.0 | 0.00 | 0.00 | 0.00 | 69 | 1008.4 |
| 20260510005418 | 63 | 212 | 0.0 | 0.0 | 0.00 | 0.00 | 0.00 | 69 | 1008.3 |
| 20260510004915 | 63 | 212 | 0.0 | 0.0 | 0.00 | 0.00 | 0.00 | 68 | 1008.2 |
| 20260510004413 | 64 | 211 | 0.0 | 0.0 | 0.00 | 0.00 | 0.00 | 67 | 1008.5 |
| 20260510003910 | 64 | 212 | 0.0 | 0.0 | 0.00 | 0.00 | 0.00 | 67 | 1008.2 |
| 20260510003407 | 64 | 212 | 0.0 | 0.0 | 0.00 | 0.00 | 0.00 | 66 | 1008.5 |
| 20260510002906 | 65 | 212 | 0.0 | 0.0 | 0.00 | 0.00 | 0.00 | 65 | 1008.2 |
| 20260510002404 | 65 | 211 | 0.0 | 0.0 | 0.00 | 0.00 | 0.00 | 64 | 1008.2 |
| 20260510001900 | 66 | 211 | 0.0 | 0.0 | 0.00 | 0.00 | 0.00 | 64 | 1008.0 |
| 20260510001358 | 67 | 211 | 0.0 | 0.0 | 0.00 | 0.00 | 0.00 | 62 | 1008.0 |
| 20260510000854 | 67 | 211 | 0.0 | 0.0 | 0.00 | 0.00 | 0.00 | 61 | 1008.1 |
| 20260510000351 | 68 | 211 | 0.0 | 0.0 | 0.00 | 0.00 | 0.00 | 60 | 1007.9 |
| 20260509235847 | 69 | 211 | 0.0 | 0.0 | 0.00 | 0.00 | 0.00 | 59 | 1007.8 |
| 20260509235344 | 69 | 211 | 0.0 | 0.0 | 0.00 | 0.00 | 0.00 | 58 | 1007.9 |
| 20260509234840 | 70 | 211 | 0.0 | 0.0 | 0.00 | 0.00 | 0.00 | 56 | 1008.0 |
| 20260509234337 | 71 | 211 | 0.0 | 0.0 | 0.00 | 0.00 | 0.00 | 54 | 1007.9 |
| 20260509233836 | 72 | 211 | 0.0 | 1.0 | 0.00 | 0.00 | 0.00 | 51 | 1007.9 |
| 20260509233334 | 73 | 212 | 0.0 | 1.0 | 0.00 | 0.00 | 0.00 | 49 | 1007.8 |
| 20260509232834 | 74 | 211 | 0.0 | 1.0 | 0.00 | 0.00 | 0.00 | 49 | 1007.8 |
| 20260509232332 | 75 | 226 | 0.0 | 1.0 | 0.00 | 0.00 | 0.00 | 45 | 1007.6 |
| 20260509231828 | 75 | 285 | 0.0 | 1.0 | 0.00 | 0.00 | 0.00 | 47 | 1008.0 |
| 20260509231325 | 75 | 268 | 0.0 | 1.0 | 0.00 | 0.00 | 0.00 | 46 | 1007.6 |
| 20260509230823 | 75 | 304 | 1.0 | 3.0 | 0.00 | 0.00 | 0.00 | 45 | 1007.6 |
| 20260509230320 | 75 | 267 | 0.0 | 1.0 | 0.00 | 0.00 | 0.00 | 45 | 1007.7 |
| 20260509225814 | 75 | 282 | 1.0 | 2.0 | 0.00 | 0.00 | 0.00 | 44 | 1007.8 |
| 20260509225312 | 75 | 164 | 0.0 | 0.0 | 0.00 | 0.00 | 0.00 | 45 | 1007.7 |
| 20260509224808 | 75 | 165 | 1.0 | 1.0 | 0.00 | 0.00 | 0.00 | 44 | 1007.7 |
| 20260509224304 | 76 | 201 | 0.0 | 1.0 | 0.00 | 0.00 | 0.00 | 45 | 1007.7 |
| 20260509223801 | 76 | 252 | 0.0 | 1.0 | 0.00 | 0.00 | 0.00 | 45 | 1007.7 |
| 20260509223258 | 75 | 263 | 1.0 | 2.0 | 0.00 | 0.00 | 0.00 | 45 | 1007.9 |
| 20260509222755 | 74 | 316 | 1.0 | 1.0 | 0.00 | 0.00 | 0.00 | 47 | 1007.8 |
| 20260509222250 | 73 | 255 | 0.0 | 0.0 | 0.00 | 0.00 | 0.00 | 48 | 1007.9 |
| 20260509221745 | 73 | 251 | 0.0 | 1.0 | 0.00 | 0.00 | 0.00 | 48 | 1007.8 |
| 20260509221242 | 74 | 277 | 1.0 | 2.0 | 0.00 | 0.00 | 0.00 | 47 | 1007.8 |
| 20260509220738 | 75 | 297 | 0.0 | 2.0 | 0.00 | 0.00 | 0.00 | 46 | 1007.8 |
| 20260509220235 | 75 | 94 | 0.0 | 2.0 | 0.00 | 0.00 | 0.00 | 47 | 1007.9 |
| 20260509215730 | 75 | 296 | 1.0 | 3.0 | 0.00 | 0.00 | 0.00 | 45 | 1007.9 |
| 20260509215227 | 74 | 251 | 0.0 | 1.0 | 0.00 | 0.00 | 0.00 | 48 | 1007.7 |
| 20260509214725 | 74 | 264 | 0.0 | 2.0 | 0.00 | 0.00 | 0.00 | 47 | 1007.8 |
| 20260509214221 | 75 | 268 | 2.0 | 3.0 | 0.00 | 0.00 | 0.00 | 45 | 1007.8 |
| 20260509213718 | 76 | 281 | 1.0 | 4.0 | 0.00 | 0.00 | 0.00 | 45 | 1007.7 |
| 20260509213214 | 77 | 219 | 1.0 | 8.0 | 0.00 | 0.00 | 0.00 | 44 | 1007.7 |
| 20260509212712 | 75 | 137 | 0.0 | 1.0 | 0.00 | 0.00 | 0.00 | 47 | 1007.8 |
| 20260509212208 | 76 | 261 | 1.0 | 4.0 | 0.00 | 0.00 | 0.00 | 45 | 1007.7 |
| 20260509211705 | 74 | 286 | 1.0 | 2.0 | 0.00 | 0.00 | 0.00 | 48 | 1007.6 |
| 20260509211201 | 74 | 257 | 1.0 | 2.0 | 0.00 | 0.00 | 0.00 | 47 | 1007.9 |
| 20260509210658 | 74 | 84 | 0.0 | 1.0 | 0.00 | 0.00 | 0.00 | 48 | 1007.9 |
| 20260509210155 | 74 | 117 | 1.0 | 1.0 | 0.00 | 0.00 | 0.00 | 48 | 1007.6 |
| 20260509205650 | 75 | 114 | 1.0 | 1.0 | 0.00 | 0.00 | 0.00 | 46 | 1007.8 |
| 20260509205150 | 76 | 104 | 2.0 | 2.0 | 0.00 | 0.00 | 0.00 | 45 | 1007.6 |
| 20260509204646 | 75 | 106 | 0.0 | 1.0 | 0.00 | 0.00 | 0.00 | 45 | 1007.6 |
| 20260509204142 | 75 | 106 | 2.0 | 2.0 | 0.00 | 0.00 | 0.00 | 46 | 1007.6 |
| 20260509203638 | 76 | 245 | 3.0 | 6.0 | 0.00 | 0.00 | 0.00 | 45 | 1007.5 |
| 20260509203137 | 75 | 102 | 1.0 | 2.0 | 0.00 | 0.00 | 0.00 | 45 | 1007.3 |
| 20260509202637 | 75 | 111 | 1.0 | 2.0 | 0.00 | 0.00 | 0.00 | 46 | 1007.6 |
| 20260509202132 | 77 | 136 | 1.0 | 3.0 | 0.00 | 0.00 | 0.00 | 43 | 1007.6 |
| 20260509201627 | 77 | 313 | 0.0 | 2.0 | 0.00 | 0.00 | 0.00 | 45 | 1007.6 |
| 20260509201126 | 76 | 231 | 1.0 | 2.0 | 0.00 | 0.00 | 0.00 | 46 | 1007.9 |
| 20260509200621 | 76 | 297 | 3.0 | 4.0 | 0.00 | 0.00 | 0.00 | 44 | 1007.8 |
| 20260509200116 | 76 | 126 | 1.0 | 2.0 | 0.00 | 0.00 | 0.00 | 45 | 1008.0 |
| 20260509195612 | 77 | 313 | 1.0 | 3.0 | 0.00 | 0.00 | 0.00 | 44 | 1007.8 |
| 20260509195107 | 77 | 268 | 0.0 | 3.0 | 0.00 | 0.00 | 0.00 | 45 | 1008.0 |
| 20260509194607 | 76 | 231 | 1.0 | 4.0 | 0.00 | 0.00 | 0.00 | 46 | 1008.1 |
| 20260509194105 | 75 | 292 | 2.0 | 4.0 | 0.00 | 0.00 | 0.00 | 46 | 1008.4 |
| 20260509193600 | 75 | 297 | 1.0 | 9.0 | 0.00 | 0.00 | 0.00 | 49 | 1008.3 |
| 20260509193056 | 74 | 209 | 0.0 | 2.0 | 0.00 | 0.00 | 0.00 | 50 | 1008.5 |
| 20260509192553 | 73 | 289 | 2.0 | 3.0 | 0.00 | 0.00 | 0.00 | 50 | 1008.6 |
| 20260509192048 | 72 | 306 | 0.0 | 2.0 | 0.00 | 0.00 | 0.00 | 54 | 1008.5 |
| 20260509191548 | 72 | 273 | 2.0 | 3.0 | 0.00 | 0.00 | 0.00 | 51 | 1008.7 |
| 20260509191044 | 71 | 282 | 2.0 | 4.0 | 0.00 | 0.00 | 0.00 | 51 | 1008.6 |
| 20260509190541 | 71 | 211 | 0.0 | 2.0 | 0.00 | 0.00 | 0.00 | 52 | 1008.6 |
| 20260509190039 | 71 | 324 | 1.0 | 2.0 | 0.00 | 0.00 | 0.00 | 52 | 1008.8 |
| 20260509185537 | 71 | 278 | 1.0 | 4.0 | 0.00 | 0.00 | 0.00 | 51 | 1008.6 |
| 20260509185033 | 71 | 354 | 3.0 | 4.0 | 0.00 | 0.00 | 0.00 | 50 | 1008.7 |
| 20260509184531 | 71 | 268 | 1.0 | 6.0 | 0.00 | 0.00 | 0.00 | 51 | 1008.9 |
| 20260509184027 | 70 | 346 | 0.0 | 3.0 | 0.00 | 0.00 | 0.00 | 51 | 1008.8 |
| 20260509183522 | 70 | 202 | 1.0 | 4.0 | 0.00 | 0.00 | 0.00 | 51 | 1009.1 |
| 20260509183019 | 70 | 242 | 1.0 | 3.0 | 0.00 | 0.00 | 0.00 | 51 | 1009.2 |
| 20260509182515 | 70 | 291 | 1.0 | 7.0 | 0.00 | 0.00 | 0.00 | 51 | 1009.4 |
| 20260509182012 | 71 | 284 | 0.0 | 2.0 | 0.00 | 0.00 | 0.00 | 52 | 1009.1 |
| 20260509181511 | 71 | 278 | 1.0 | 1.0 | 0.00 | 0.00 | 0.00 | 50 | 1009.3 |
| 20260509181008 | 71 | 312 | 0.0 | 1.0 | 0.00 | 0.00 | 0.00 | 51 | 1009.3 |
| 20260509180503 | 71 | 187 | 0.0 | 2.0 | 0.00 | 0.00 | 0.00 | 51 | 1009.4 |
| 20260509180000 | 71 | 195 | 2.0 | 7.0 | 0.00 | 0.00 | 0.00 | 49 | 1009.8 |
| 20260509175456 | 71 | 232 | 3.0 | 4.0 | 0.00 | 0.00 | 0.00 | 49 | 1009.6 |
| 20260509174953 | 71 | 158 | 0.0 | 3.0 | 0.00 | 0.00 | 0.00 | 51 | 1009.7 |
| 20260509174449 | 71 | 247 | 1.0 | 3.0 | 0.00 | 0.00 | 0.00 | 49 | 1009.7 |
| 20260509173944 | 71 | 336 | 1.0 | 2.0 | 0.00 | 0.00 | 0.00 | 50 | 1009.7 |
| 20260509173444 | 72 | 199 | 1.0 | 2.0 | 0.00 | 0.00 | 0.00 | 48 | 1009.8 |
| 20260509172942 | 73 | 350 | 3.0 | 3.0 | 0.00 | 0.00 | 0.00 | 46 | 1009.6 |
| 20260509172439 | 74 | 251 | 1.0 | 3.0 | 0.00 | 0.00 | 0.00 | 45 | 1009.7 |
| 20260509171934 | 73 | 71 | 1.0 | 4.0 | 0.00 | 0.00 | 0.00 | 48 | 1009.8 |
| 20260509171430 | 73 | 260 | 1.0 | 4.0 | 0.00 | 0.00 | 0.00 | 47 | 1009.7 |
| 20260509170927 | 73 | 229 | 1.0 | 3.0 | 0.00 | 0.00 | 0.00 | 48 | 1009.8 |
| 20260509170423 | 72 | 99 | 2.0 | 3.0 | 0.00 | 0.00 | 0.00 | 47 | 1009.8 |
| 20260509165919 | 71 | 115 | 0.0 | 3.0 | 0.00 | 0.00 | 0.00 | 50 | 1009.8 |
| 20260509165419 | 70 | 237 | 1.0 | 6.0 | 0.00 | 0.00 | 0.00 | 52 | 1009.7 |
| 20260509164914 | 70 | 77 | 2.0 | 2.0 | 0.00 | 0.00 | 0.00 | 51 | 1009.8 |
| 20260509164411 | 70 | 298 | 2.0 | 3.0 | 0.00 | 0.00 | 0.00 | 50 | 1010.1 |
| 20260509163907 | 70 | 214 | 2.0 | 4.0 | 0.00 | 0.00 | 0.00 | 50 | 1009.9 |
| 20260509163404 | 71 | 3 | 2.0 | 3.0 | 0.00 | 0.00 | 0.00 | 50 | 1010.0 |
| 20260509162903 | 70 | 306 | 3.0 | 4.0 | 0.00 | 0.00 | 0.00 | 51 | 1009.9 |
| 20260509162401 | 69 | 216 | 1.0 | 2.0 | 0.00 | 0.00 | 0.00 | 53 | 1009.9 |
| 20260509161857 | 69 | 256 | 0.0 | 6.0 | 0.00 | 0.00 | 0.00 | 51 | 1010.2 |
| 20260509161354 | 70 | 271 | 2.0 | 4.0 | 0.00 | 0.00 | 0.00 | 51 | 1010.1 |
| 20260509160850 | 71 | 106 | 1.0 | 3.0 | 0.00 | 0.00 | 0.00 | 50 | 1010.0 |
| 20260509160345 | 70 | 119 | 2.0 | 6.0 | 0.00 | 0.00 | 0.00 | 52 | 1009.8 |
| 20260509155841 | 69 | 198 | 1.0 | 2.0 | 0.00 | 0.00 | 0.00 | 53 | 1010.2 |
| 20260509155337 | 68 | 291 | 1.0 | 1.0 | 0.00 | 0.00 | 0.00 | 54 | 1010.3 |
| 20260509154834 | 67 | 283 | 0.0 | 2.0 | 0.00 | 0.00 | 0.00 | 54 | 1010.5 |
| 20260509154330 | 67 | 274 | 2.0 | 8.0 | 0.00 | 0.00 | 0.00 | 54 | 1010.5 |
| 20260509153827 | 67 | 129 | 0.0 | 1.0 | 0.00 | 0.00 | 0.00 | 55 | 1010.5 |
| 20260509153324 | 67 | 292 | 2.0 | 10.0 | 0.00 | 0.00 | 0.00 | 53 | 1010.5 |
| 20260509152821 | 68 | 205 | 2.0 | 3.0 | 0.00 | 0.00 | 0.00 | 54 | 1010.4 |
| 20260509152317 | 68 | 101 | 1.0 | 3.0 | 0.00 | 0.00 | 0.00 | 53 | 1010.5 |
| 20260509151815 | 68 | 113 | 2.0 | 3.0 | 0.00 | 0.00 | 0.00 | 54 | 1010.4 |
| 20260509151310 | 67 | 126 | 1.0 | 4.0 | 0.00 | 0.00 | 0.00 | 54 | 1010.6 |
| 20260509150809 | 66 | 309 | 5.0 | 7.0 | 0.00 | 0.00 | 0.00 | 54 | 1010.5 |
| 20260509150307 | 66 | 194 | 1.0 | 2.0 | 0.00 | 0.00 | 0.00 | 55 | 1010.7 |
| 20260509145803 | 66 | 329 | 1.0 | 6.0 | 0.00 | 0.00 | 0.00 | 55 | 1010.6 |
| 20260509145306 | 66 | 257 | 4.0 | 7.0 | 0.00 | 0.00 | 0.00 | 57 | 1010.8 |
| 20260509144800 | 65 | 108 | 1.0 | 4.0 | 0.00 | 0.00 | 0.00 | 56 | 1011.0 |
| 20260509144257 | 65 | 300 | 0.0 | 4.0 | 0.00 | 0.00 | 0.00 | 60 | 1011.0 |
| 20260509143754 | 65 | 344 | 1.0 | 4.0 | 0.00 | 0.00 | 0.00 | 57 | 1011.0 |
| 20260509143252 | 64 | 267 | 4.0 | 6.0 | 0.00 | 0.00 | 0.00 | 56 | 1011.0 |
| 20260509142747 | 64 | 281 | 1.0 | 3.0 | 0.00 | 0.00 | 0.00 | 57 | 1011.1 |
| 20260509142243 | 63 | 296 | 4.0 | 7.0 | 0.00 | 0.00 | 0.00 | 58 | 1011.3 |
| 20260509141739 | 63 | 326 | 0.0 | 6.0 | 0.00 | 0.00 | 0.00 | 60 | 1011.2 |
| 20260509141237 | 63 | 287 | 3.0 | 4.0 | 0.00 | 0.00 | 0.00 | 60 | 1011.3 |
| 20260509140733 | 63 | 246 | 1.0 | 2.0 | 0.00 | 0.00 | 0.00 | 61 | 1011.3 |
| 20260509140231 | 63 | 279 | 0.0 | 8.0 | 0.00 | 0.00 | 0.00 | 60 | 1010.9 |
| 20260509135728 | 62 | 270 | 4.0 | 7.0 | 0.00 | 0.00 | 0.00 | 61 | 1011.1 |
| 20260509135226 | 62 | 109 | 2.0 | 2.0 | 0.00 | 0.00 | 0.00 | 63 | 1011.2 |
| 20260509134722 | 61 | 270 | 1.0 | 2.0 | 0.00 | 0.00 | 0.00 | 63 | 1011.3 |
| 20260509134220 | 61 | 2 | 1.0 | 4.0 | 0.00 | 0.00 | 0.00 | 63 | 1011.2 |
| 20260509133717 | 60 | 128 | 1.0 | 2.0 | 0.00 | 0.00 | 0.00 | 63 | 1011.3 |
| 20260509133213 | 60 | 259 | 1.0 | 2.0 | 0.00 | 0.00 | 0.00 | 63 | 1011.2 |
| 20260509132712 | 60 | 110 | 2.0 | 2.0 | 0.00 | 0.00 | 0.00 | 63 | 1011.4 |
| 20260509132211 | 60 | 276 | 1.0 | 3.0 | 0.00 | 0.00 | 0.00 | 65 | 1011.2 |
| 20260509131707 | 60 | 75 | 0.0 | 1.0 | 0.00 | 0.00 | 0.00 | 65 | 1011.2 |
| 20260509131203 | 60 | 153 | 1.0 | 4.0 | 0.00 | 0.00 | 0.00 | 64 | 1011.3 |
| 20260509130659 | 60 | 285 | 1.0 | 2.0 | 0.00 | 0.00 | 0.00 | 64 | 1011.2 |
| 20260509130155 | 60 | 112 | 2.0 | 3.0 | 0.00 | 0.00 | 0.00 | 64 | 1011.2 |
| 20260509125652 | 60 | 227 | 2.0 | 4.0 | 0.00 | 0.00 | 0.00 | 64 | 1011.2 |
| 20260509125149 | 60 | 117 | 0.0 | 2.0 | 0.00 | 0.00 | 0.00 | 63 | 1011.3 |
| 20260509124645 | 60 | 252 | 1.0 | 6.0 | 0.00 | 0.00 | 0.00 | 62 | 1011.4 |
| 20260509124142 | 60 | 320 | 4.0 | 4.0 | 0.00 | 0.00 | 0.00 | 62 | 1011.6 |
| 20260509123640 | 60 | 347 | 0.0 | 2.0 | 0.00 | 0.00 | 0.00 | 64 | 1011.2 |
| 20260509123137 | 60 | 262 | 2.0 | 3.0 | 0.00 | 0.00 | 0.00 | 62 | 1011.5 |
| 20260509122633 | 60 | 254 | 1.0 | 2.0 | 0.00 | 0.00 | 0.00 | 62 | 1011.2 |
| 20260509122130 | 59 | 95 | 1.0 | 1.0 | 0.00 | 0.00 | 0.00 | 62 | 1011.2 |
| 20260509121626 | 59 | 26 | 0.0 | 2.0 | 0.00 | 0.00 | 0.00 | 62 | 1011.2 |
| 20260509121124 | 59 | 131 | 1.0 | 2.0 | 0.00 | 0.00 | 0.00 | 61 | 1011.1 |
| 20260509120622 | 59 | 111 | 1.0 | 3.0 | 0.00 | 0.00 | 0.00 | 61 | 1011.2 |
| 20260509120120 | 59 | 114 | 0.0 | 1.0 | 0.00 | 0.00 | 0.00 | 61 | 1011.3 |
| 20260509115617 | 59 | 104 | 2.0 | 3.0 | 0.00 | 0.00 | 0.00 | 62 | 1011.3 |
| 20260509115115 | 59 | 152 | 1.0 | 2.0 | 0.00 | 0.00 | 0.00 | 61 | 1011.4 |
| 20260509114613 | 59 | 46 | 1.0 | 1.0 | 0.00 | 0.00 | 0.00 | 61 | 1011.2 |
| 20260509114112 | 59 | 112 | 4.0 | 4.0 | 0.00 | 0.00 | 0.00 | 61 | 1011.4 |
| 20260509113609 | 59 | 109 | 1.0 | 2.0 | 0.00 | 0.00 | 0.00 | 60 | 1011.4 |
| 20260509113107 | 59 | 150 | 0.0 | 1.0 | 0.00 | 0.00 | 0.00 | 59 | 1011.2 |
| 20260509112603 | 58 | 180 | 1.0 | 1.0 | 0.00 | 0.00 | 0.00 | 59 | 1011.3 |
| 20260509112100 | 58 | 182 | 0.0 | 1.0 | 0.00 | 0.00 | 0.00 | 60 | 1011.2 |
| 20260509111557 | 59 | 212 | 1.0 | 2.0 | 0.00 | 0.00 | 0.00 | 59 | 1010.9 |
| 20260509111054 | 58 | 102 | 1.0 | 1.0 | 0.00 | 0.00 | 0.00 | 58 | 1011.1 |
| 20260509110551 | 58 | 118 | 1.0 | 2.0 | 0.00 | 0.00 | 0.00 | 58 | 1011.1 |
| 20260509110048 | 58 | 296 | 0.0 | 1.0 | 0.00 | 0.00 | 0.00 | 58 | 1011.1 |
| 20260509105546 | 58 | 53 | 0.0 | 1.0 | 0.00 | 0.00 | 0.00 | 59 | 1011.0 |
| 20260509105043 | 58 | 135 | 0.0 | 0.0 | 0.00 | 0.00 | 0.00 | 60 | 1011.1 |
| 20260509104540 | 58 | 146 | 0.0 | 0.0 | 0.00 | 0.00 | 0.00 | 58 | 1011.1 |
| 20260509104037 | 58 | 173 | 0.0 | 1.0 | 0.00 | 0.00 | 0.00 | 58 | 1010.9 |
| 20260509103535 | 58 | 269 | 0.0 | 0.0 | 0.00 | 0.00 | 0.00 | 57 | 1010.9 |
| 20260509103033 | 58 | 333 | 0.0 | 0.0 | 0.00 | 0.00 | 0.00 | 56 | 1010.9 |
| 20260509102530 | 58 | 348 | 0.0 | 1.0 | 0.00 | 0.00 | 0.00 | 55 | 1010.9 |
| 20260509102027 | 58 | 316 | 0.0 | 0.0 | 0.00 | 0.00 | 0.00 | 54 | 1010.7 |
| 20260509101523 | 58 | 296 | 0.0 | 1.0 | 0.00 | 0.00 | 0.00 | 54 | 1010.7 |
| 20260509101020 | 58 | 303 | 0.0 | 1.0 | 0.00 | 0.00 | 0.00 | 54 | 1010.8 |
| 20260509100517 | 58 | 44 | 0.0 | 1.0 | 0.00 | 0.00 | 0.00 | 54 | 1010.7 |
| 20260509100015 | 58 | 78 | 0.0 | 0.0 | 0.00 | 0.00 | 0.00 | 54 | 1010.7 |
| 20260509095511 | 58 | 78 | 0.0 | 1.0 | 0.00 | 0.00 | 0.00 | 54 | 1010.7 |
| 20260509095008 | 58 | 149 | 0.0 | 1.0 | 0.00 | 0.00 | 0.00 | 54 | 1010.6 |
| 20260509094504 | 58 | 225 | 0.0 | 1.0 | 0.00 | 0.00 | 0.00 | 53 | 1010.7 |
| 20260509094002 | 58 | 225 | 0.0 | 1.0 | 0.00 | 0.00 | 0.00 | 53 | 1010.6 |
| 20260509093500 | 58 | 278 | 0.0 | 1.0 | 0.00 | 0.00 | 0.00 | 52 | 1010.6 |
| 20260509092957 | 58 | 248 | 0.0 | 1.0 | 0.00 | 0.00 | 0.00 | 52 | 1010.8 |
| 20260509092455 | 58 | 248 | 0.0 | 0.0 | 0.00 | 0.00 | 0.00 | 52 | 1010.8 |
| 20260509091953 | 58 | 222 | 0.0 | 1.0 | 0.00 | 0.00 | 0.00 | 51 | 1010.8 |
| 20260509091450 | 59 | 223 | 0.0 | 0.0 | 0.00 | 0.00 | 0.00 | 52 | 1010.7 |
| 20260509090947 | 59 | 218 | 0.0 | 1.0 | 0.00 | 0.00 | 0.00 | 51 | 1010.8 |
| 20260509090444 | 59 | 246 | 0.0 | 2.0 | 0.00 | 0.00 | 0.00 | 50 | 1010.9 |
| 20260509085942 | 59 | 271 | 0.0 | 2.0 | 0.00 | 0.00 | 0.00 | 50 | 1010.9 |
| 20260509085439 | 59 | 300 | 0.0 | 1.0 | 0.00 | 0.00 | 0.00 | 51 | 1010.9 |
| 20260509084935 | 59 | 271 | 0.0 | 1.0 | 0.00 | 0.00 | 0.00 | 51 | 1010.9 |
| 20260509084432 | 59 | 250 | 0.0 | 2.0 | 0.00 | 0.00 | 0.00 | 50 | 1011.0 |
| 20260509083929 | 59 | 237 | 2.0 | 3.0 | 0.00 | 0.00 | 0.00 | 51 | 1011.0 |
| 20260509083426 | 59 | 299 | 1.0 | 1.0 | 0.00 | 0.00 | 0.00 | 51 | 1011.0 |
| 20260509082923 | 59 | 357 | 0.0 | 1.0 | 0.00 | 0.00 | 0.00 | 52 | 1011.1 |
| 20260509082421 | 59 | 262 | 0.0 | 1.0 | 0.00 | 0.00 | 0.00 | 52 | 1011.2 |
| 20260509081917 | 59 | 282 | 0.0 | 1.0 | 0.00 | 0.00 | 0.00 | 53 | 1011.1 |
| 20260509081415 | 59 | 51 | 1.0 | 1.0 | 0.00 | 0.00 | 0.00 | 54 | 1011.2 |
| 20260509080912 | 59 | 299 | 0.0 | 1.0 | 0.00 | 0.00 | 0.00 | 54 | 1011.4 |
| 20260509080410 | 58 | 207 | 2.0 | 3.0 | 0.00 | 0.00 | 0.00 | 56 | 1011.3 |
| 20260509075908 | 58 | 223 | 0.0 | 1.0 | 0.00 | 0.00 | 0.00 | 57 | 1011.6 |
| 20260509075404 | 58 | 301 | 2.0 | 2.0 | 0.00 | 0.00 | 0.00 | 58 | 1011.5 |
| 20260509074902 | 57 | 292 | 0.0 | 1.0 | 0.00 | 0.00 | 0.00 | 59 | 1011.4 |
| 20260509074359 | 57 | 264 | 0.0 | 3.0 | 0.00 | 0.00 | 0.00 | 58 | 1011.5 |
| 20260509073855 | 57 | 239 | 0.0 | 1.0 | 0.00 | 0.00 | 0.00 | 58 | 1011.5 |
| 20260509073352 | 57 | 306 | 0.0 | 2.0 | 0.00 | 0.00 | 0.00 | 58 | 1011.6 |
| 20260509072848 | 57 | 190 | 0.0 | 1.0 | 0.00 | 0.00 | 0.00 | 58 | 1011.5 |
| 20260509072345 | 57 | 255 | 1.0 | 3.0 | 0.00 | 0.00 | 0.00 | 58 | 1011.8 |
| 20260509071842 | 57 | 250 | 0.0 | 0.0 | 0.00 | 0.00 | 0.00 | 57 | 1011.6 |
| 20260509071339 | 57 | 274 | 1.0 | 2.0 | 0.00 | 0.00 | 0.00 | 57 | 1011.7 |
| 20260509070836 | 57 | 272 | 0.0 | 1.0 | 0.00 | 0.00 | 0.00 | 57 | 1011.7 |
| 20260509070333 | 57 | 249 | 2.0 | 2.0 | 0.00 | 0.00 | 0.00 | 56 | 1011.6 |
| 20260509065829 | 57 | 306 | 0.0 | 1.0 | 0.00 | 0.00 | 0.00 | 56 | 1011.7 |
| 20260509065325 | 57 | 270 | 1.0 | 2.0 | 0.00 | 0.00 | 0.00 | 56 | 1011.6 |
| 20260509064821 | 57 | 50 | 0.0 | 0.0 | 0.00 | 0.00 | 0.00 | 57 | 1012.0 |
| 20260509064319 | 57 | 319 | 0.0 | 1.0 | 0.00 | 0.00 | 0.00 | 56 | 1011.9 |
| 20260509063816 | 57 | 294 | 0.0 | 0.0 | 0.00 | 0.00 | 0.00 | 57 | 1011.7 |
| 20260509063312 | 57 | 294 | 0.0 | 0.0 | 0.00 | 0.00 | 0.00 | 57 | 1011.9 |
| 20260509062810 | 57 | 294 | 0.0 | 0.0 | 0.00 | 0.00 | 0.00 | 55 | 1011.9 |
| 20260509062307 | 57 | 279 | 0.0 | 0.0 | 0.00 | 0.00 | 0.00 | 55 | 1012.0 |
| 20260509061804 | 57 | 13 | 0.0 | 0.0 | 0.00 | 0.00 | 0.00 | 56 | 1011.8 |
| 20260509061302 | 57 | 218 | 0.0 | 0.0 | 0.00 | 0.00 | 0.00 | 55 | 1011.8 |
| 20260509060758 | 57 | 218 | 0.0 | 0.0 | 0.00 | 0.00 | 0.00 | 56 | 1011.8 |
| 20260509060255 | 57 | 214 | 0.0 | 0.0 | 0.00 | 0.00 | 0.00 | 56 | 1011.6 |
| 20260509055751 | 57 | 214 | 0.0 | 1.0 | 0.00 | 0.00 | 0.00 | 54 | 1011.9 |
| 20260509055247 | 57 | 214 | 0.0 | 1.0 | 0.00 | 0.00 | 0.00 | 55 | 1011.8 |
| 20260509054744 | 56 | 214 | 0.0 | 0.0 | 0.00 | 0.00 | 0.00 | 54 | 1012.0 |
| 20260509054240 | 56 | 214 | 0.0 | 0.0 | 0.00 | 0.00 | 0.00 | 54 | 1012.2 |
| 20260509053739 | 57 | 187 | 0.0 | 1.0 | 0.00 | 0.00 | 0.00 | 57 | 1011.9 |
| 20260509053235 | 57 | 237 | 0.0 | 0.0 | 0.00 | 0.00 | 0.00 | 53 | 1012.3 |
| 20260509052734 | 57 | 236 | 0.0 | 0.0 | 0.00 | 0.00 | 0.00 | 53 | 1012.1 |
| 20260509052231 | 57 | 236 | 1.0 | 2.0 | 0.00 | 0.00 | 0.00 | 54 | 1012.1 |
| 20260509051728 | 57 | 86 | 0.0 | 0.0 | 0.00 | 0.00 | 0.00 | 52 | 1012.0 |
| 20260509051226 | 57 | 87 | 0.0 | 0.0 | 0.00 | 0.00 | 0.00 | 53 | 1012.0 |
| 20260509050723 | 57 | 87 | 0.0 | 1.0 | 0.00 | 0.00 | 0.00 | 52 | 1011.8 |
| 20260509050219 | 57 | 89 | 0.0 | 0.0 | 0.00 | 0.00 | 0.00 | 52 | 1012.2 |
| 20260509045717 | 57 | 235 | 0.0 | 0.0 | 0.00 | 0.00 | 0.00 | 53 | 1011.7 |
| 20260509045213 | 57 | 237 | 0.0 | 2.0 | 0.00 | 0.00 | 0.00 | 52 | 1012.1 |
| 20260509044711 | 57 | 185 | 0.0 | 1.0 | 0.00 | 0.00 | 0.00 | 53 | 1012.0 |
| 20260509044208 | 57 | 213 | 0.0 | 0.0 | 0.00 | 0.00 | 0.00 | 52 | 1012.0 |
| 20260509043704 | 57 | 211 | 0.0 | 1.0 | 0.00 | 0.00 | 0.00 | 54 | 1011.8 |
| 20260509043200 | 57 | 216 | 0.0 | 1.0 | 0.00 | 0.00 | 0.00 | 54 | 1012.1 |
| 20260509042657 | 57 | 284 | 0.0 | 0.0 | 0.00 | 0.00 | 0.00 | 53 | 1011.8 |
| 20260509042153 | 57 | 284 | 0.0 | 0.0 | 0.00 | 0.00 | 0.00 | 53 | 1011.9 |
| 20260509041650 | 57 | 347 | 0.0 | 0.0 | 0.00 | 0.00 | 0.00 | 53 | 1012.0 |
| 20260509041147 | 57 | 347 | 0.0 | 1.0 | 0.00 | 0.00 | 0.00 | 55 | 1012.0 |
| 20260509040646 | 58 | 331 | 0.0 | 0.0 | 0.00 | 0.00 | 0.00 | 54 | 1011.9 |
| 20260509040142 | 58 | 331 | 0.0 | 0.0 | 0.00 | 0.00 | 0.00 | 53 | 1012.1 |
| 20260509035639 | 58 | 17 | 0.0 | 1.0 | 0.00 | 0.00 | 0.00 | 53 | 1012.0 |
| 20260509035136 | 58 | 15 | 0.0 | 0.0 | 0.00 | 0.00 | 0.00 | 53 | 1012.1 |
| 20260509034633 | 58 | 13 | 0.0 | 0.0 | 0.00 | 0.00 | 0.00 | 53 | 1012.0 |
| 20260509034130 | 58 | 14 | 0.0 | 0.0 | 0.00 | 0.00 | 0.00 | 53 | 1012.0 |